Time;durP1;ratioP1;P1;durP2;ratioP2;P2;SDS_P1;SDS_P2;PMS_P1;PMS_P2;Temp;Humidity;BMP_temperature;BMP_pressure;BME280_temperature;BME280_humidity;BME280_pressure;Samples;Min_cycle;Max_cycle;Signal;HPM_P1;HPM_P2
2024/04/02 00:01:05;;;;;;;17.15;2.80;;;13.60;96.70;;;;;;5037768;28;20044;-68
2024/04/02 00:03:32;;;;;;;14.95;2.47;;;13.60;96.70;;;;;;5043471;28;20047;-67
2024/04/02 00:06:02;;;;;;;13.13;2.17;;;13.60;96.70;;;;;;5052348;28;20056;-68
2024/04/02 00:08:29;;;;;;;11.90;2.40;;;13.50;96.70;;;;;;5045457;28;20051;-66
2024/04/02 00:11:01;;;;;;;16.95;2.85;;;13.60;96.70;;;;;;5050137;28;20048;-69
2024/04/02 00:13:29;;;;;;;18.00;2.45;;;13.60;96.70;;;;;;5028469;28;20045;-66
2024/04/02 00:15:57;;;;;;;14.23;2.20;;;13.50;96.70;;;;;;5055961;28;20057;-66
2024/04/02 00:18:24;;;;;;;12.70;2.50;;;13.60;96.70;;;;;;5032768;28;20069;-66
2024/04/02 00:20:51;;;;;;;12.88;2.10;;;13.60;96.70;;;;;;5040840;28;20428;-66
2024/04/02 00:23:20;;;;;;;11.60;2.38;;;13.50;96.70;;;;;;5039086;28;20044;-68
2024/04/02 00:25:47;;;;;;;15.40;2.83;;;13.50;96.70;;;;;;5045038;28;20117;-66
2024/04/02 00:28:14;;;;;;;14.05;2.50;;;13.40;96.70;;;;;;5039944;28;20103;-67
2024/04/02 00:30:41;;;;;;;14.65;2.50;;;13.40;96.70;;;;;;5066012;28;20451;-66
2024/04/02 00:33:09;;;;;;;12.18;2.30;;;13.40;96.70;;;;;;5049973;28;20147;-66
2024/04/02 00:35:35;;;;;;;12.02;2.17;;;13.40;96.70;;;;;;5050256;28;20056;-66
2024/04/02 00:38:02;;;;;;;13.02;2.55;;;13.40;96.70;;;;;;5050380;28;20052;-66
2024/04/02 00:40:32;;;;;;;10.85;1.63;;;13.40;96.70;;;;;;5031184;28;20036;-67
2024/04/02 00:43:05;;;;;;;11.60;2.25;;;13.40;96.70;;;;;;5049377;28;20075;-66
2024/04/02 00:45:34;;;;;;;13.68;2.97;;;13.50;96.70;;;;;;5049891;28;20044;-66
2024/04/02 00:48:03;;;;;;;11.70;2.38;;;13.60;96.70;;;;;;5052584;28;20143;-67
2024/04/02 00:50:31;;;;;;;10.73;2.20;;;13.70;96.70;;;;;;5033321;28;20516;-67
2024/04/02 00:52:59;;;;;;;14.10;2.17;;;13.50;96.70;;;;;;5049974;28;20048;-66
2024/04/02 00:55:26;;;;;;;13.40;2.10;;;13.50;96.70;;;;;;5026976;28;20056;-66
2024/04/02 00:57:56;;;;;;;10.85;2.28;;;13.60;96.70;;;;;;5050489;28;20054;-66
2024/04/02 01:00:24;;;;;;;12.13;2.00;;;13.70;96.70;;;;;;5066054;28;20636;-66
2024/04/02 01:02:51;;;;;;;11.52;2.35;;;13.80;96.70;;;;;;5050038;28;20113;-66
2024/04/02 01:05:19;;;;;;;14.52;3.05;;;13.90;96.70;;;;;;5046887;28;20048;-66
2024/04/02 01:07:47;;;;;;;15.38;2.63;;;13.90;96.70;;;;;;5043721;28;20045;-66
2024/04/02 01:10:15;;;;;;;15.43;2.03;;;14.00;96.70;;;;;;5034217;28;20052;-67
2024/04/02 01:12:42;;;;;;;11.73;2.10;;;14.00;96.70;;;;;;5050044;28;20472;-66
2024/04/02 01:15:12;;;;;;;10.98;2.45;;;13.90;96.70;;;;;;5045258;28;20053;-66
2024/04/02 01:17:39;;;;;;;10.02;2.47;;;14.00;96.70;;;;;;5041646;28;20068;-66
2024/04/02 01:20:08;;;;;;;14.73;2.97;;;14.00;96.70;;;;;;5031894;28;20524;-66
2024/04/02 01:22:35;;;;;;;11.82;2.30;;;14.00;96.70;;;;;;5049716;28;20052;-66
2024/04/02 01:25:05;;;;;;;14.60;2.47;;;14.00;96.70;;;;;;5048958;28;20138;-66
2024/04/02 01:27:35;;;;;;;11.98;2.33;;;14.00;96.70;;;;;;5044949;28;20040;-67
2024/04/02 01:30:03;;;;;;;10.00;1.83;;;14.00;96.70;;;;;;5065745;28;20043;-66
2024/04/02 01:32:31;;;;;;;13.15;2.15;;;14.00;96.70;;;;;;5072102;28;20042;-66
2024/04/02 01:34:59;;;;;;;13.20;2.15;;;14.00;96.70;;;;;;5055320;28;20079;-67
2024/04/02 01:37:28;;;;;;;17.30;2.42;;;14.00;96.70;;;;;;5071827;28;20044;-66
2024/04/02 01:39:55;;;;;;;14.55;2.15;;;13.90;96.70;;;;;;5071784;28;20098;-66
2024/04/02 01:42:22;;;;;;;16.10;2.78;;;14.00;96.70;;;;;;5055489;28;20043;-66
2024/04/02 01:44:52;;;;;;;12.60;2.30;;;14.00;96.70;;;;;;5072297;28;20051;-66
2024/04/02 01:47:20;;;;;;;13.25;2.58;;;14.00;96.70;;;;;;5055425;28;20055;-66
2024/04/02 01:49:48;;;;;;;15.23;2.45;;;13.90;96.70;;;;;;5055422;28;20079;-66
2024/04/02 01:52:15;;;;;;;19.42;2.67;;;13.90;96.70;;;;;;5051850;28;20044;-66
2024/04/02 01:54:43;;;;;;;18.80;3.28;;;13.90;96.70;;;;;;5069858;28;20040;-66
2024/04/02 01:57:10;;;;;;;17.33;3.20;;;13.80;96.70;;;;;;5072551;28;20051;-66
2024/04/02 01:59:38;;;;;;;17.08;2.30;;;13.80;96.70;;;;;;5055107;28;20074;-66
2024/04/02 02:02:07;;;;;;;12.80;2.30;;;13.80;96.70;;;;;;5051111;28;20040;-66
2024/04/02 02:04:35;;;;;;;13.23;2.47;;;13.80;96.70;;;;;;5071374;28;20351;-67
2024/04/02 02:07:02;;;;;;;10.27;2.00;;;13.80;96.70;;;;;;5055339;28;20070;-66
2024/04/02 02:09:29;;;;;;;12.05;2.10;;;13.80;96.70;;;;;;5071701;28;20047;-66
2024/04/02 02:11:57;;;;;;;10.48;2.22;;;13.80;96.70;;;;;;5061166;28;20058;-66
2024/04/02 02:14:25;;;;;;;8.75;1.98;;;13.80;96.70;;;;;;5055278;28;20047;-66
2024/04/02 02:16:52;;;;;;;15.77;2.17;;;13.90;96.70;;;;;;5071433;28;20039;-66
2024/04/02 02:19:21;;;;;;;10.73;1.98;;;13.90;96.70;;;;;;5058306;28;20128;-66
2024/04/02 02:21:48;;;;;;;10.55;2.22;;;13.90;96.70;;;;;;5071137;28;20053;-66
2024/04/02 02:24:16;;;;;;;9.38;1.77;;;14.00;96.70;;;;;;5057211;28;20553;-66
2024/04/02 02:26:43;;;;;;;10.68;1.95;;;14.10;96.70;;;;;;5055013;28;20471;-66
2024/04/02 02:29:10;;;;;;;11.32;1.95;;;14.10;96.70;;;;;;5053559;28;20271;-66
2024/04/02 02:31:38;;;;;;;15.57;2.20;;;14.10;96.70;;;;;;5071333;28;20479;-66
2024/04/02 02:34:06;;;;;;;9.90;2.30;;;14.10;96.70;;;;;;5066644;28;20051;-66
2024/04/02 02:36:35;;;;;;;13.40;2.40;;;14.10;96.70;;;;;;5070220;28;20078;-67
2024/04/02 02:39:04;;;;;;;11.90;2.25;;;14.10;96.70;;;;;;5055340;28;20039;-67
2024/04/02 02:41:31;;;;;;;16.63;2.47;;;14.10;96.70;;;;;;5054646;28;20096;-67
2024/04/02 02:44:00;;;;;;;10.95;1.75;;;14.10;96.70;;;;;;5054436;28;20040;-66
2024/04/02 02:46:28;;;;;;;11.15;2.03;;;14.00;96.70;;;;;;5070711;28;20047;-66
2024/04/02 02:48:55;;;;;;;11.18;2.92;;;14.00;96.70;;;;;;5054069;28;20455;-66
2024/04/02 02:51:22;;;;;;;13.25;2.53;;;14.00;96.70;;;;;;5070563;28;20039;-66
2024/04/02 02:53:51;;;;;;;8.55;1.67;;;14.00;96.70;;;;;;5053426;28;20047;-66
2024/04/02 02:56:19;;;;;;;9.95;1.75;;;14.00;96.70;;;;;;5070919;28;20116;-66
2024/04/02 02:58:46;;;;;;;10.73;2.05;;;14.00;96.70;;;;;;5070636;28;20039;-66
2024/04/02 03:01:14;;;;;;;15.48;2.08;;;14.00;96.70;;;;;;5069700;28;20530;-66
2024/04/02 03:03:43;;;;;;;15.23;2.50;;;14.00;96.70;;;;;;5054410;28;20508;-66
2024/04/02 03:06:10;;;;;;;9.95;1.92;;;14.00;96.70;;;;;;5070855;28;20070;-67
2024/04/02 03:08:37;;;;;;;17.13;2.50;;;14.00;96.70;;;;;;5070784;28;20071;-66
2024/04/02 03:11:06;;;;;;;11.35;2.20;;;13.90;96.70;;;;;;5054750;28;20055;-66
2024/04/02 03:13:34;;;;;;;12.48;2.15;;;14.00;96.70;;;;;;5067813;28;20054;-66
2024/04/02 03:16:03;;;;;;;11.40;2.40;;;14.00;96.70;;;;;;5070156;28;20047;-66
2024/04/02 03:18:31;;;;;;;12.15;2.08;;;14.00;96.70;;;;;;5069245;28;20067;-67
2024/04/02 03:21:02;;;;;;;16.35;2.42;;;14.00;96.70;;;;;;5052251;28;20036;-67
2024/04/02 03:23:29;;;;;;;9.55;2.20;;;14.00;96.70;;;;;;5054075;28;20127;-67
2024/04/02 03:26:00;;;;;;;12.05;2.10;;;14.00;96.70;;;;;;5070141;28;20036;-66
2024/04/02 03:28:32;;;;;;;11.98;1.98;;;14.00;96.70;;;;;;5070477;28;20055;-66
2024/04/02 03:31:01;;;;;;;11.73;2.10;;;13.90;96.70;;;;;;5080155;28;20056;-66
2024/04/02 03:33:29;;;;;;;13.40;2.05;;;13.90;96.70;;;;;;5061729;28;20054;-67
2024/04/02 03:36:01;;;;;;;13.32;2.25;;;13.90;96.70;;;;;;5055757;28;20074;-66
2024/04/02 03:38:28;;;;;;;10.43;1.63;;;13.90;96.70;;;;;;5057954;28;20044;-66
2024/04/02 03:41:06;;;;;;;13.45;2.30;;;13.90;96.70;;;;;;5075215;28;20082;-66
2024/04/02 03:43:35;;;;;;;10.05;2.10;;;13.90;96.70;;;;;;5073411;28;20040;-67
2024/04/02 03:46:03;;;;;;;12.40;2.00;;;13.90;96.70;;;;;;5074179;28;20422;-67
2024/04/02 03:48:30;;;;;;;10.32;2.33;;;13.90;96.70;;;;;;5072790;28;20059;-67
2024/04/02 03:50:58;;;;;;;11.30;2.40;;;13.80;96.70;;;;;;5072168;28;20051;-66
2024/04/02 03:53:25;;;;;;;16.02;1.90;;;13.80;96.70;;;;;;5072883;28;20043;-66
2024/04/02 03:55:56;;;;;;;14.30;1.98;;;13.80;96.70;;;;;;5057432;28;20062;-66
2024/04/02 03:58:26;;;;;;;12.23;2.38;;;13.80;96.70;;;;;;5062016;28;20116;-67
2024/04/02 04:00:57;;;;;;;14.18;2.15;;;13.80;96.70;;;;;;5072997;28;20572;-66
2024/04/02 04:03:25;;;;;;;12.00;1.70;;;13.80;96.70;;;;;;5073726;28;20075;-67
2024/04/02 04:05:57;;;;;;;13.13;2.38;;;13.80;96.70;;;;;;5068974;28;20044;-66
2024/04/02 04:08:26;;;;;;;11.38;2.03;;;13.80;96.70;;;;;;5073024;28;20146;-66
2024/04/02 04:10:55;;;;;;;15.35;1.95;;;13.80;96.70;;;;;;5057923;28;20075;-67
2024/04/02 04:13:23;;;;;;;10.98;2.22;;;13.80;96.70;;;;;;5057919;28;20039;-66
2024/04/02 04:15:52;;;;;;;13.13;2.17;;;13.80;96.70;;;;;;5059597;28;20050;-66
2024/04/02 04:18:21;;;;;;;12.20;1.67;;;13.80;96.70;;;;;;5073678;28;20230;-66
2024/04/02 04:20:52;;;;;;;15.90;2.95;;;13.80;96.70;;;;;;5057440;28;20063;-66
2024/04/02 04:23:19;;;;;;;13.55;2.25;;;13.80;96.70;;;;;;5074135;28;20051;-66
2024/04/02 04:25:47;;;;;;;10.90;2.30;;;13.70;96.70;;;;;;5073580;28;20049;-66
2024/04/02 04:28:14;;;;;;;19.38;3.80;;;13.70;96.70;;;;;;5073679;28;20175;-66
2024/04/02 04:30:42;;;;;;;11.23;2.58;;;13.80;96.70;;;;;;5055356;28;20062;-67
2024/04/02 04:33:09;;;;;;;13.60;2.88;;;13.80;96.70;;;;;;5069868;28;20048;-66
2024/04/02 04:35:39;;;;;;;9.43;2.20;;;13.80;96.70;;;;;;5055667;28;20046;-66
2024/04/02 04:38:06;;;;;;;11.52;2.50;;;13.80;96.70;;;;;;5056226;28;20092;-66
2024/04/02 04:40:35;;;;;;;9.60;2.40;;;13.80;96.70;;;;;;5072179;28;20056;-66
2024/04/02 04:43:03;;;;;;;9.80;2.13;;;13.80;96.70;;;;;;5052655;28;20059;-66
2024/04/02 04:45:32;;;;;;;12.00;2.25;;;13.90;96.70;;;;;;5069018;28;20182;-66
2024/04/02 04:48:00;;;;;;;10.68;2.38;;;13.90;96.70;;;;;;5071955;28;20048;-67
2024/04/02 04:50:27;;;;;;;12.82;3.17;;;13.80;96.70;;;;;;5081978;28;20408;-67
2024/04/02 04:52:56;;;;;;;15.73;3.03;;;13.70;96.70;;;;;;5055287;28;20044;-66
2024/04/02 04:55:23;;;;;;;14.52;3.45;;;13.70;96.70;;;;;;5056128;28;20117;-67
2024/04/02 04:57:50;;;;;;;13.55;2.70;;;13.70;96.70;;;;;;5056084;28;20097;-67
2024/04/02 05:00:17;;;;;;;10.88;2.35;;;13.70;96.70;;;;;;5070853;28;20119;-66
2024/04/02 05:02:46;;;;;;;13.68;1.98;;;13.70;96.70;;;;;;5055154;28;20047;-66
2024/04/02 05:05:14;;;;;;;14.40;2.65;;;13.90;96.70;;;;;;5055286;28;20050;-67
2024/04/02 05:07:57;;;;;;;12.80;2.17;;;13.90;96.70;;;;;;5055232;28;20622;-66
2024/04/02 05:10:24;;;;;;;13.68;2.83;;;13.90;96.70;;;;;;5054620;28;20494;-66
2024/04/02 05:12:52;;;;;;;9.77;2.15;;;14.00;96.70;;;;;;5057781;28;20108;-66
2024/04/02 05:15:19;;;;;;;9.85;2.53;;;14.10;96.70;;;;;;5053437;28;20720;-66
2024/04/02 05:17:46;;;;;;;12.95;2.58;;;14.10;96.70;;;;;;5088672;28;20105;-66
2024/04/02 05:20:14;;;;;;;11.95;2.05;;;14.20;96.70;;;;;;5054782;28;20051;-66
2024/04/02 05:22:43;;;;;;;11.70;2.60;;;14.20;96.70;;;;;;5055412;28;20143;-66
2024/04/02 05:25:13;;;;;;;11.73;2.13;;;14.20;96.70;;;;;;5055125;28;20096;-66
2024/04/02 05:27:40;;;;;;;10.77;2.00;;;14.20;96.70;;;;;;5004407;28;1900709;-67
2024/04/02 05:30:08;;;;;;;13.60;2.85;;;14.30;96.70;;;;;;5072201;28;20116;-65
2024/04/02 05:32:38;;;;;;;13.32;2.17;;;14.30;96.70;;;;;;5067886;28;20051;-67
2024/04/02 05:35:05;;;;;;;20.63;5.00;;;14.30;96.70;;;;;;5072541;28;20051;-67
2024/04/02 05:37:35;;;;;;;14.85;3.97;;;14.30;96.70;;;;;;5088623;28;20082;-66
2024/04/02 05:40:04;;;;;;;13.15;4.25;;;14.30;96.70;;;;;;5069885;28;20403;-67
2024/04/02 05:42:33;;;;;;;15.15;2.97;;;14.20;96.70;;;;;;5072034;28;20527;-66
2024/04/02 05:45:00;;;;;;;14.40;3.05;;;14.20;96.70;;;;;;5071367;28;20047;-67
2024/04/02 05:47:27;;;;;;;9.15;2.60;;;14.20;96.70;;;;;;5058904;28;20792;-67
2024/04/02 05:49:55;;;;;;;11.07;2.67;;;14.20;96.70;;;;;;5054728;28;20146;-67
2024/04/02 05:52:24;;;;;;;11.80;3.00;;;14.30;96.70;;;;;;5071448;28;20047;-66
2024/04/02 05:54:53;;;;;;;13.07;2.40;;;14.40;96.70;;;;;;5068928;28;20051;-67
2024/04/02 05:57:20;;;;;;;10.60;2.35;;;14.50;96.70;;;;;;5056613;28;20048;-67
2024/04/02 05:59:50;;;;;;;11.48;2.40;;;14.50;96.70;;;;;;5055969;28;20071;-67
2024/04/02 06:02:17;;;;;;;12.30;2.80;;;14.50;96.70;;;;;;5056256;28;20040;-66
2024/04/02 06:04:45;;;;;;;9.70;2.33;;;14.50;96.70;;;;;;5072098;28;20123;-65
2024/04/02 06:07:15;;;;;;;7.47;2.50;;;14.60;96.70;;;;;;5070791;28;20508;-67
2024/04/02 06:09:46;;;;;;;11.20;2.38;;;14.60;96.70;;;;;;5055722;28;20047;-67
2024/04/02 06:12:13;;;;;;;11.45;2.13;;;14.60;96.70;;;;;;5054934;28;20078;-67
2024/04/02 06:14:42;;;;;;;12.35;3.10;;;14.60;96.70;;;;;;5071539;28;20183;-68
2024/04/02 06:17:10;;;;;;;12.35;3.47;;;14.60;96.70;;;;;;5070890;28;20047;-66
2024/04/02 06:19:39;;;;;;;9.60;2.33;;;14.60;96.70;;;;;;5054937;28;20100;-67
2024/04/02 06:22:06;;;;;;;12.40;2.17;;;14.60;96.70;;;;;;5054547;28;20457;-65
2024/04/02 06:24:37;;;;;;;9.40;2.47;;;14.70;96.70;;;;;;5048873;28;20058;-67
2024/04/02 06:27:05;;;;;;;11.50;1.80;;;14.70;96.70;;;;;;5055433;28;20054;-66
2024/04/02 06:29:34;;;;;;;11.75;1.88;;;14.80;96.70;;;;;;5040927;28;20695;-67
2024/04/02 06:32:01;;;;;;;10.57;2.25;;;14.90;96.70;;;;;;5038697;28;20108;-67
2024/04/02 06:34:30;;;;;;;12.93;2.20;;;14.80;96.70;;;;;;5045011;28;20044;-66
2024/04/02 06:36:57;;;;;;;12.13;2.35;;;14.90;96.70;;;;;;5052991;28;20078;-66
2024/04/02 06:39:24;;;;;;;11.25;2.42;;;14.90;96.70;;;;;;5043317;28;20044;-67
2024/04/02 06:41:53;;;;;;;10.10;2.10;;;14.90;96.70;;;;;;5039797;28;20051;-67
2024/04/02 06:44:21;;;;;;;12.70;2.33;;;15.00;96.70;;;;;;5057920;28;20044;-65
2024/04/02 06:46:49;;;;;;;11.98;2.33;;;15.00;96.70;;;;;;5050563;28;20554;-66
2024/04/02 06:49:19;;;;;;;14.68;3.60;;;15.10;96.70;;;;;;5048305;28;20075;-66
2024/04/02 06:51:49;;;;;;;10.82;3.83;;;15.20;96.70;;;;;;5036913;28;20053;-66
2024/04/02 06:54:19;;;;;;;8.98;2.35;;;15.20;96.70;;;;;;5059440;28;20098;-67
2024/04/02 06:56:46;;;;;;;11.25;2.65;;;15.30;96.70;;;;;;5036229;28;20059;-67
2024/04/02 06:59:13;;;;;;;9.88;2.20;;;15.40;96.70;;;;;;5034856;28;20049;-67
2024/04/02 07:01:41;;;;;;;5.88;2.35;;;15.50;96.70;;;;;;5048980;28;20048;-67
2024/04/02 07:04:09;;;;;;;8.65;2.15;;;15.50;96.70;;;;;;5047975;28;20413;-66
2024/04/02 07:06:36;;;;;;;13.90;3.08;;;15.50;96.70;;;;;;5047997;28;21106;-67
2024/04/02 07:09:05;;;;;;;17.02;2.42;;;15.50;96.70;;;;;;5041582;28;20048;-66
2024/04/02 07:11:32;;;;;;;11.45;2.90;;;15.40;96.70;;;;;;5056923;28;20059;-66
2024/04/02 07:14:01;;;;;;;8.60;2.15;;;15.40;96.70;;;;;;5031304;28;20064;-65
2024/04/02 07:16:31;;;;;;;9.65;2.40;;;15.30;96.70;;;;;;5031799;28;20417;-66
2024/04/02 07:18:59;;;;;;;12.32;3.05;;;15.40;96.70;;;;;;5028893;28;20044;-67
2024/04/02 07:21:27;;;;;;;8.48;1.80;;;15.40;96.70;;;;;;5041369;28;20147;-66
2024/04/02 07:23:54;;;;;;;14.70;2.25;;;15.40;96.70;;;;;;5039043;28;20044;-67
2024/04/02 07:26:24;;;;;;;8.80;1.92;;;15.50;96.70;;;;;;5041747;28;20052;-66
2024/04/02 07:28:52;;;;;;;11.77;2.45;;;15.50;96.70;;;;;;5056797;28;20063;-66
2024/04/02 07:31:24;;;;;;;15.90;4.20;;;15.60;96.70;;;;;;5038438;28;20053;-66
2024/04/02 07:33:51;;;;;;;10.50;2.25;;;15.60;96.70;;;;;;5056534;28;20086;-66
2024/04/02 07:36:18;;;;;;;8.88;1.70;;;15.70;96.70;;;;;;5033139;28;20045;-66
2024/04/02 07:38:51;;;;;;;11.82;2.00;;;15.80;96.70;;;;;;5045129;28;20110;-66
2024/04/02 07:41:18;;;;;;;8.30;1.85;;;15.80;96.70;;;;;;5047905;28;20139;-67
2024/04/02 07:43:48;;;;;;;12.35;2.15;;;15.90;96.70;;;;;;5056489;28;20037;-66
2024/04/02 07:46:15;;;;;;;8.98;1.45;;;15.90;96.70;;;;;;5042546;28;20088;-66
2024/04/02 07:48:43;;;;;;;8.45;1.48;;;15.90;96.70;;;;;;5047664;28;20052;-70
2024/04/02 07:51:10;;;;;;;14.40;2.30;;;16.00;96.70;;;;;;5038074;28;20173;-67
2024/04/02 07:53:39;;;;;;;14.38;1.90;;;16.10;96.70;;;;;;5039889;28;20482;-66
2024/04/02 07:56:06;;;;;;;12.50;2.20;;;16.10;96.70;;;;;;5031943;28;20045;-66
2024/04/02 07:58:33;;;;;;;11.00;1.77;;;16.20;96.70;;;;;;5046338;28;20087;-67
2024/04/02 08:01:02;;;;;;;9.95;1.60;;;16.30;96.70;;;;;;5048514;28;20068;-67
2024/04/02 08:03:30;;;;;;;7.50;1.42;;;16.40;96.70;;;;;;5050254;28;20033;-67
2024/04/02 08:05:58;;;;;;;7.63;1.60;;;16.40;96.70;;;;;;5053150;28;20048;-66
2024/04/02 08:08:27;;;;;;;7.63;1.92;;;16.30;96.70;;;;;;5055285;28;20050;-67
2024/04/02 08:10:54;;;;;;;14.13;2.28;;;16.30;96.70;;;;;;5041236;28;20048;-67
2024/04/02 08:13:26;;;;;;;7.82;1.52;;;16.30;96.70;;;;;;5032198;28;20044;-65
2024/04/02 08:15:55;;;;;;;11.38;2.08;;;16.40;96.70;;;;;;5043781;28;20063;-66
2024/04/02 08:18:25;;;;;;;6.55;1.63;;;16.30;96.70;;;;;;5032394;28;20057;-66
2024/04/02 08:20:56;;;;;;;5.07;1.25;;;16.40;96.70;;;;;;5044715;28;20122;-67
2024/04/02 08:23:24;;;;;;;7.28;1.55;;;16.50;96.70;;;;;;5066063;28;20044;-67
2024/04/02 08:25:52;;;;;;;4.40;1.20;;;16.60;96.70;;;;;;5060729;28;20513;-67
2024/04/02 08:28:20;;;;;;;5.13;0.70;;;16.60;96.70;;;;;;5047893;28;20056;-66
2024/04/02 08:30:48;;;;;;;4.18;1.10;;;16.50;96.70;;;;;;5074167;28;20174;-66
2024/04/02 08:33:17;;;;;;;4.00;1.45;;;16.60;96.70;;;;;;5073652;28;20062;-66
2024/04/02 08:35:51;;;;;;;5.30;0.90;;;16.70;96.70;;;;;;5074851;28;20609;-67
2024/04/02 08:38:18;;;;;;;3.65;1.00;;;16.80;96.70;;;;;;5053379;28;20060;-67
2024/04/02 08:40:50;;;;;;;5.05;1.08;;;16.80;96.70;;;;;;5085927;28;20470;-67
2024/04/02 08:43:18;;;;;;;5.03;1.02;;;17.00;96.70;;;;;;5087055;28;20055;-67
2024/04/02 08:45:45;;;;;;;6.50;1.15;;;17.10;96.70;;;;;;5065319;28;20071;-67
2024/04/02 08:48:15;;;;;;;5.55;0.80;;;17.10;96.70;;;;;;5056551;28;20082;-67
2024/04/02 08:50:43;;;;;;;5.57;1.42;;;17.20;96.70;;;;;;5072297;28;20055;-67
2024/04/02 08:53:13;;;;;;;3.67;0.57;;;17.20;96.70;;;;;;5056391;28;20094;-67
2024/04/02 08:55:41;;;;;;;5.15;1.10;;;17.30;96.70;;;;;;5070653;28;20055;-67
2024/04/02 08:58:10;;;;;;;3.13;0.63;;;17.40;96.70;;;;;;5065980;28;20052;-67
2024/04/02 09:00:39;;;;;;;3.38;1.13;;;17.40;96.70;;;;;;5090279;28;20062;-67
2024/04/02 09:03:08;;;;;;;5.60;1.00;;;17.30;96.70;;;;;;5071666;28;20075;-67
2024/04/02 09:05:36;;;;;;;1.85;0.35;;;17.40;96.70;;;;;;5056023;28;20054;-66
2024/04/02 09:08:09;;;;;;;3.28;0.70;;;17.60;96.70;;;;;;5056138;28;20088;-67
2024/04/02 09:10:39;;;;;;;1.60;0.40;;;17.70;96.70;;;;;;5056279;28;20539;-67
2024/04/02 09:13:06;;;;;;;1.92;0.50;;;17.70;96.70;;;;;;5055547;28;20143;-67
2024/04/02 09:15:35;;;;;;;2.85;0.50;;;17.70;96.70;;;;;;5053462;28;20036;-67
2024/04/02 09:18:03;;;;;;;5.30;0.57;;;17.80;96.70;;;;;;5055178;28;20052;-68
2024/04/02 09:20:33;;;;;;;4.50;0.70;;;17.80;96.70;;;;;;5056279;28;20054;-69
2024/04/02 09:23:01;;;;;;;3.65;0.65;;;17.90;96.70;;;;;;5052663;28;20048;-67
2024/04/02 09:25:30;;;;;;;5.25;1.00;;;18.10;96.70;;;;;;5071195;28;20047;-67
2024/04/02 09:28:01;;;;;;;1.33;0.40;;;18.10;96.70;;;;;;5071794;28;20424;-66
2024/04/02 09:30:31;;;;;;;2.53;0.60;;;18.20;96.70;;;;;;5071491;28;20047;-66
2024/04/02 09:33:03;;;;;;;4.00;0.70;;;18.20;96.70;;;;;;5063788;28;20092;-65
2024/04/02 09:35:59;;;;;;;3.90;0.70;;;18.30;96.70;;;;;;5055457;28;20469;-66
2024/04/02 09:38:28;;;;;;;4.47;0.43;;;18.20;96.70;;;;;;5069181;28;20044;-67
2024/04/02 09:40:59;;;;;;;3.28;0.70;;;18.20;96.70;;;;;;5055880;28;20058;-66
2024/04/02 09:43:30;;;;;;;2.67;0.80;;;18.20;96.70;;;;;;5072941;28;20044;-65
2024/04/02 09:46:01;;;;;;;3.03;0.30;;;18.30;96.70;;;;;;5056773;28;20097;-66
2024/04/02 09:48:30;;;;;;;3.00;0.47;;;18.40;96.70;;;;;;5052919;28;20143;-66
2024/04/02 09:51:02;;;;;;;2.45;0.35;;;18.40;96.70;;;;;;5073390;28;20058;-66
2024/04/02 09:53:30;;;;;;;3.28;0.52;;;18.40;96.70;;;;;;5052348;28;20113;-66
2024/04/02 09:55:59;;;;;;;2.55;0.50;;;18.50;96.70;;;;;;5072086;28;20587;-66
2024/04/02 09:58:30;;;;;;;1.70;0.47;;;18.60;96.70;;;;;;5079485;27;20047;-67
2024/04/02 10:01:00;;;;;;;3.90;0.52;;;18.70;96.70;;;;;;5071933;28;20612;-66
2024/04/02 10:03:29;;;;;;;1.08;0.40;;;18.80;96.70;;;;;;5072547;28;20170;-67
2024/04/02 10:06:02;;;;;;;4.10;0.50;;;18.90;96.70;;;;;;5052059;28;20503;-67
2024/04/02 10:08:30;;;;;;;5.43;0.57;;;19.10;96.70;;;;;;5071820;28;20521;-66
2024/04/02 10:11:00;;;;;;;3.17;0.47;;;19.00;96.70;;;;;;5072359;28;20191;-66
2024/04/02 10:13:37;;;;;;;0.93;0.20;;;19.00;96.70;;;;;;5055058;28;20046;-66
2024/04/02 10:16:08;;;;;;;1.30;0.20;;;18.90;96.70;;;;;;5072803;28;20052;-66
2024/04/02 10:18:43;;;;;;;1.70;0.60;;;18.90;96.70;;;;;;5072801;28;20135;-66
2024/04/02 10:21:12;;;;;;;3.25;0.60;;;19.00;96.70;;;;;;5054151;28;20054;-66
2024/04/02 10:23:44;;;;;;;5.32;1.10;;;19.10;96.70;;;;;;5068603;28;20043;-66
2024/04/02 10:26:12;;;;;;;1.67;0.40;;;19.10;96.70;;;;;;5071981;28;20113;-65
2024/04/02 10:28:43;;;;;;;2.28;0.50;;;19.10;96.70;;;;;;5056831;27;20066;-66
2024/04/02 10:31:16;;;;;;;2.88;0.60;;;18.90;96.70;;;;;;5059559;28;20051;-66
2024/04/02 10:33:48;;;;;;;6.72;0.52;;;18.70;96.70;;;;;;5052259;28;20560;-66
2024/04/02 10:36:16;;;;;;;2.50;0.55;;;18.40;96.70;;;;;;5047304;28;20047;-66
2024/04/02 10:38:45;;;;;;;1.75;0.32;;;18.20;96.70;;;;;;5054234;28;20134;-66
2024/04/02 10:41:13;;;;;;;2.47;0.35;;;18.10;96.70;;;;;;5055786;28;20071;-67
2024/04/02 10:43:43;;;;;;;3.33;0.50;;;18.10;96.70;;;;;;5055082;28;20092;-67
2024/04/02 10:46:11;;;;;;;4.40;0.40;;;18.10;96.70;;;;;;5054799;28;20059;-66
2024/04/02 10:48:40;;;;;;;3.05;0.70;;;18.00;96.70;;;;;;5088467;28;20444;-66
2024/04/02 10:51:10;;;;;;;3.15;0.50;;;17.90;96.70;;;;;;5071504;28;20078;-65
2024/04/02 10:53:38;;;;;;;3.08;0.40;;;18.00;96.70;;;;;;5071298;28;20044;-66
2024/04/02 10:56:09;;;;;;;3.28;0.52;;;18.20;96.70;;;;;;5055130;28;20051;-66
2024/04/02 10:58:38;;;;;;;2.75;0.93;;;18.20;96.70;;;;;;5054756;28;20565;-66
2024/04/02 11:01:09;;;;;;;4.90;0.70;;;18.00;96.70;;;;;;5055159;28;20052;-66
2024/04/02 11:03:37;;;;;;;6.43;0.98;;;17.80;96.70;;;;;;5054436;28;20504;-66
2024/04/02 11:06:05;;;;;;;4.07;0.55;;;17.80;96.70;;;;;;5051223;28;20044;-66
2024/04/02 11:08:38;;;;;;;5.60;0.77;;;18.20;96.70;;;;;;5068180;28;20047;-66
2024/04/02 11:11:08;;;;;;;5.20;0.80;;;18.60;96.70;;;;;;5055103;28;20108;-67
2024/04/02 11:13:38;;;;;;;4.18;0.75;;;18.80;96.70;;;;;;5066538;28;20055;-66
2024/04/02 11:16:10;;;;;;;2.40;0.50;;;18.90;96.70;;;;;;5071956;28;20043;-69
2024/04/02 11:18:40;;;;;;;3.88;0.77;;;18.90;96.70;;;;;;5055490;28;20040;-66
2024/04/02 11:21:15;;;;;;;5.75;0.85;;;18.90;96.70;;;;;;5055133;28;20047;-67
2024/04/02 11:26:29;;;;;;;5.28;0.88;;;18.80;96.70;;;;;;5070972;28;20135;-66
2024/04/02 11:29:04;;;;;;;6.07;0.93;;;18.50;96.70;;;;;;5077926;28;20060;-66
2024/04/02 11:31:36;;;;;;;5.15;1.02;;;18.40;96.70;;;;;;5048348;28;20110;-66
2024/04/02 11:34:03;;;;;;;4.03;0.60;;;18.70;96.70;;;;;;5029084;28;20049;-66
2024/04/02 11:36:31;;;;;;;4.45;0.70;;;19.00;96.70;;;;;;5039067;28;20271;-66
2024/04/02 11:38:59;;;;;;;6.40;0.90;;;19.00;96.70;;;;;;5040743;28;20053;-68
2024/04/02 11:41:27;;;;;;;3.28;0.80;;;19.30;96.70;;;;;;5048626;28;20048;-65
2024/04/02 11:43:55;;;;;;;6.50;0.90;;;19.50;96.70;;;;;;5034349;28;20476;-65
2024/04/02 11:46:25;;;;;;;7.97;1.15;;;19.00;96.70;;;;;;5030915;28;20053;-66
2024/04/02 11:48:54;;;;;;;5.47;1.33;;;18.70;96.70;;;;;;5050491;28;20052;-66
2024/04/02 11:51:22;;;;;;;5.28;0.98;;;18.40;96.70;;;;;;5046159;28;20156;-65
2024/04/02 11:53:50;;;;;;;8.70;1.48;;;18.40;96.70;;;;;;5057404;28;20075;-66
2024/04/02 11:56:21;;;;;;;6.55;1.70;;;18.70;96.70;;;;;;5064791;28;20048;-66
2024/04/02 12:01:37;;;;;;;8.52;1.25;;;18.70;96.70;;;;;;5062429;28;20111;-66
2024/04/02 12:04:08;;;;;;;5.25;1.20;;;18.50;96.70;;;;;;5067324;28;20153;-67
2024/04/02 12:06:37;;;;;;;5.28;1.20;;;18.60;96.70;;;;;;5060433;28;20144;-66
2024/04/02 12:09:08;;;;;;;5.38;1.20;;;18.30;96.70;;;;;;5034888;28;20657;-66
2024/04/02 12:11:39;;;;;;;5.40;1.10;;;18.20;96.70;;;;;;5047203;28;20052;-66
2024/04/02 12:14:08;;;;;;;5.90;1.23;;;18.20;96.70;;;;;;5052407;28;20055;-64
2024/04/02 12:16:37;;;;;;;6.95;1.35;;;18.30;96.70;;;;;;5045334;28;20450;-65
2024/04/02 12:19:14;;;;;;;6.13;1.40;;;18.80;96.70;;;;;;5044776;28;20072;-66
2024/04/02 12:21:42;;;;;;;9.57;1.55;;;18.90;96.70;;;;;;5042505;28;20059;-66
2024/04/02 12:24:12;;;;;;;7.32;1.50;;;18.80;96.70;;;;;;5042176;28;20052;-66
2024/04/02 12:26:39;;;;;;;5.30;1.50;;;19.00;96.70;;;;;;5033030;28;20040;-66
2024/04/02 12:29:07;;;;;;;8.40;2.20;;;19.10;96.70;;;;;;5062378;28;20080;-66
2024/04/02 12:31:36;;;;;;;4.97;1.08;;;19.20;96.70;;;;;;5046847;28;20048;-65
2024/04/02 12:34:04;;;;;;;8.55;1.50;;;19.30;96.70;;;;;;5034483;28;20089;-67
2024/04/02 12:36:35;;;;;;;9.95;2.13;;;18.90;96.70;;;;;;5059423;28;20112;-67
2024/04/02 12:39:04;;;;;;;6.55;1.63;;;18.60;96.70;;;;;;5043535;28;20056;-67
2024/04/02 12:41:34;;;;;;;8.32;1.45;;;18.50;96.70;;;;;;5039952;28;20047;-66
2024/04/02 12:44:05;;;;;;;8.80;1.83;;;18.80;96.70;;;;;;5035965;28;20048;-66
2024/04/02 12:46:33;;;;;;;9.75;2.05;;;18.60;96.70;;;;;;5045194;28;20086;-65
2024/04/02 12:49:05;;;;;;;10.05;1.25;;;18.70;96.70;;;;;;5050396;28;20078;-65
2024/04/02 12:51:34;;;;;;;7.93;1.52;;;19.10;96.70;;;;;;5031536;28;20425;-66
2024/04/02 12:54:02;;;;;;;7.07;1.63;;;19.10;96.70;;;;;;5047406;28;20049;-65